createdAt,value
2023-01-08T00:04:18.432Z,19.6511
2023-01-08T00:19:20.362Z,18.8649
2023-01-08T00:34:22.302Z,19.154
2023-01-08T00:49:24.231Z,18.79
2023-01-08T01:04:26.282Z,18.4031
2023-01-08T01:19:28.278Z,18.7733
2023-01-08T01:34:30.169Z,19.8944
2023-01-08T01:49:32.075Z,19.2642
2023-01-08T02:04:33.946Z,17.8441
2023-01-08T02:19:35.889Z,20.4862
2023-01-08T02:34:37.868Z,21.9651
2023-01-08T02:49:40.013Z,22.7717
2023-01-08T03:04:41.936Z,23.4186
2023-01-08T03:19:43.873Z,21.4067
2023-01-08T03:34:45.801Z,23.8315
2023-01-08T03:49:47.737Z,25.4955
2023-01-08T04:04:49.647Z,25.5283
2023-01-08T04:19:51.732Z,26.247
2023-01-08T04:34:53.876Z,27.3322
2023-01-08T04:49:55.783Z,27.027
2023-01-08T05:04:57.733Z,23.4489
2023-01-08T05:19:59.650Z,26.8258
2023-01-08T05:35:01.582Z,27.6708
2023-01-08T05:50:03.544Z,27.4077
2023-01-08T06:05:05.462Z,28.7009
2023-01-08T06:20:07.512Z,28.8767
2023-01-08T06:35:09.456Z,27.8429
2023-01-08T06:50:11.394Z,26.9787
2023-01-08T07:05:13.359Z,27.7327
2023-01-08T07:20:15.306Z,27.4207
2023-01-08T07:35:17.276Z,27.3427
2023-01-08T07:50:19.231Z,26.8097
2023-01-08T08:05:21.124Z,26.6698
2023-01-08T08:20:23.059Z,27.404
2023-01-08T08:35:24.983Z,21.8072
2023-01-08T08:50:26.876Z,23.5201
2023-01-08T09:05:28.790Z,27.6349
2023-01-08T09:20:30.714Z,28.4966
2023-01-08T09:35:32.697Z,26.4519
2023-01-08T09:50:34.636Z,29.0228
2023-01-08T10:05:36.586Z,29.8777
2023-01-08T10:20:38.509Z,29.9334
2023-01-08T10:35:40.437Z,29.6474
2023-01-08T10:50:42.359Z,30.0863
2023-01-08T11:05:44.382Z,30.1773
2023-01-08T11:20:46.370Z,30.1773
2023-01-08T11:35:48.315Z,29.9792
2023-01-08T11:50:50.256Z,29.778
2023-01-08T12:05:52.177Z,30.0182
2023-01-08T12:20:54.105Z,25.5196
2023-01-08T12:35:56.027Z,24.4338
2023-01-08T12:50:58.070Z,23.0521
2023-01-08T13:05:59.940Z,22.5123
2023-01-08T13:21:01.791Z,21.7843
2023-01-08T13:36:03.833Z,21.8394
2023-01-08T13:51:05.696Z,21.5243
2023-01-08T14:06:07.560Z,21.8227
2023-01-08T14:21:09.418Z,21.5918
2023-01-08T14:36:11.306Z,21.6147
2023-01-08T14:51:13.136Z,21.169
2023-01-08T15:06:15.101Z,20.792
2023-01-08T15:21:16.945Z,20.883
2023-01-08T15:36:18.798Z,19.6641
2023-01-08T15:51:20.647Z,19.5731
2023-01-08T16:06:22.730Z,20.2621
2023-01-08T16:21:24.658Z,19.583
2023-01-08T16:36:26.509Z,19.0692
2023-01-08T16:51:28.368Z,19.6641
2023-01-08T17:06:30.244Z,18.9751
2023-01-08T17:21:32.108Z,19.4134
2023-01-08T17:36:34.023Z,19.4202
2023-01-08T17:51:36.098Z,18.9392
2023-01-08T18:06:37.962Z,19.3645
2023-01-08T18:21:39.830Z,19.7545
2023-01-08T18:36:41.724Z,18.9974
2023-01-08T18:51:43.588Z,18.7863
2023-01-08T19:06:45.662Z,19.3713
2023-01-08T19:21:47.528Z,19.0104
2023-01-08T19:36:49.371Z,18.8674
2023-01-08T19:51:51.214Z,19.1732
2023-01-08T20:06:53.052Z,18.4712
2023-01-08T20:21:54.899Z,19.8913
2023-01-08T20:36:56.742Z,20.0993
2023-01-08T20:51:59.758Z,19.5824
2023-01-08T21:07:02.276Z,21.351
2023-01-08T21:22:04.143Z,21.4519
2023-01-08T21:37:06.014Z,22.352
2023-01-08T21:52:07.903Z,22.8008
2023-01-08T22:07:09.744Z,22.5668
2023-01-08T22:22:11.568Z,22.8169
2023-01-08T22:37:13.500Z,22.2585
2023-01-08T22:52:15.381Z,21.7645
2023-01-08T23:07:17.256Z,22.3458
2023-01-08T23:22:19.134Z,22.7556
2023-01-08T23:37:20.946Z,22.7296
2023-01-08T23:52:22.782Z,22.3204
